Moon, Virginia
Current Conditions -  °F | °C
As of 9:55 PM on Friday 21 Nov 2014 (Local Time) from KW75 Reporting Station
Clear Clear  
Wind Chill: 28°   Ceiling: Unl
Heat Index: 28°   Visibility: 10mi
Dew Point: 16°   Wind: 0mph
Humidity: 61%   Direction: NA
Pressure: 30.57"   Gusts: NA
Location:  37.44°N, 76.29°W
Report Text: KW75 220255Z AUTO 00000KT 10SM CLR M02/M09 A3057 RMK AO1 T10231089
Loading
Personal Weather Stations






























Interactive Weather Map New forecast layout! Learn more

10-Day Weather Forecast

Advertisements
Track Severe Weather on mobile